createdAt,value
2016-05-08T00:00:04.569Z,1008.54
2016-05-08T00:00:14.569Z,1008.54
2016-05-08T00:00:24.569Z,1008.53
2016-05-08T00:00:34.572Z,1008.55
2016-05-08T00:00:44.557Z,1008.56
2016-05-08T00:00:54.557Z,1008.55
2016-05-08T00:01:04.229Z,1008.57
2016-05-08T00:01:14.541Z,1008.58
2016-05-08T00:01:24.525Z,1008.56
2016-05-08T00:01:34.543Z,1008.56
2016-05-08T00:01:44.527Z,1008.56
2016-05-08T00:01:54.527Z,1008.55
2016-05-08T00:02:04.527Z,1008.54
2016-05-08T00:02:14.356Z,1008.61
2016-05-08T00:02:24.512Z,1008.58
2016-05-08T00:02:34.515Z,1008.58
2016-05-08T00:02:44.343Z,1008.59
2016-05-08T00:02:54.499Z,1008.56
2016-05-08T00:03:04.187Z,1008.6
2016-05-08T00:03:14.484Z,1008.57
2016-05-08T00:03:24.484Z,1008.59
2016-05-08T00:03:34.487Z,1008.59
2016-05-08T00:03:44.518Z,1008.6
2016-05-08T00:03:54.471Z,1008.63
2016-05-08T00:04:04.471Z,1008.61
2016-05-08T00:04:14.455Z,1008.59
2016-05-08T00:04:24.455Z,1008.59
2016-05-08T00:04:34.302Z,1008.62
2016-05-08T00:04:44.302Z,1008.57
2016-05-08T00:04:54.443Z,1008.59
2016-05-08T00:05:04.286Z,1008.6
2016-05-08T00:05:14.443Z,1008.62
2016-05-08T00:05:24.427Z,1008.62
2016-05-08T00:05:34.273Z,1008.6
2016-05-08T00:05:44.257Z,1008.6
2016-05-08T00:05:54.429Z,1008.59
2016-05-08T00:06:04.429Z,1008.59
2016-05-08T00:06:14.445Z,1008.57
2016-05-08T00:06:24.413Z,1008.63
2016-05-08T00:06:34.416Z,1008.58
2016-05-08T00:06:44.416Z,1008.6
2016-05-08T00:06:54.385Z,1008.62
2016-05-08T00:07:04.229Z,1008.6
2016-05-08T00:07:14.229Z,1008.62
2016-05-08T00:07:24.229Z,1008.6
2016-05-08T00:07:34.373Z,1008.57
2016-05-08T00:07:44.388Z,1008.6
2016-05-08T00:07:54.373Z,1008.58
2016-05-08T00:08:04.373Z,1008.61
2016-05-08T00:08:14.357Z,1008.59
2016-05-08T00:08:24.357Z,1008.58
2016-05-08T00:08:34.187Z,1008.61
2016-05-08T00:08:44.359Z,1008.58
2016-05-08T00:08:54.359Z,1008.58
2016-05-08T00:09:04.328Z,1008.58
2016-05-08T00:09:14.343Z,1008.58
2016-05-08T00:09:24.171Z,1008.6
2016-05-08T00:09:34.315Z,1008.57
2016-05-08T00:09:44.159Z,1008.59
2016-05-08T00:09:54.315Z,1008.6
2016-05-08T00:10:04.143Z,1008.59
2016-05-08T00:10:14.299Z,1008.59
2016-05-08T00:10:24.143Z,1008.57
2016-05-08T00:10:34.131Z,1008.57
2016-05-08T00:10:44.302Z,1008.58
2016-05-08T00:10:54.287Z,1008.59
2016-05-08T00:11:04.287Z,1008.59
2016-05-08T00:11:14.287Z,1008.58
2016-05-08T00:11:24.115Z,1008.6
2016-05-08T00:11:34.258Z,1008.56
2016-05-08T00:11:44.258Z,1008.57
2016-05-08T00:11:54.101Z,1008.55
2016-05-08T00:12:04.258Z,1008.56
2016-05-08T00:12:15.133Z,1008.56
2016-05-08T00:12:24.570Z,1008.55
2016-05-08T00:12:34.604Z,1008.52
2016-05-08T00:12:44.573Z,1008.55
2016-05-08T00:12:54.104Z,1008.54
2016-05-08T00:13:04.182Z,1008.54
2016-05-08T00:13:14.229Z,1008.58
2016-05-08T00:13:24.229Z,1008.56
2016-05-08T00:13:34.217Z,1008.55
2016-05-08T00:13:44.217Z,1008.59
2016-05-08T00:13:54.201Z,1008.61
2016-05-08T00:14:04.045Z,1008.61
2016-05-08T00:14:14.201Z,1008.61
2016-05-08T00:14:24.029Z,1008.54
2016-05-08T00:14:34.031Z,1008.56
2016-05-08T00:14:44.203Z,1008.56
2016-05-08T00:14:54.187Z,1008.59
2016-05-08T00:15:04.172Z,1008.59
2016-05-08T00:15:14.172Z,1008.59
2016-05-08T00:15:24.172Z,1008.57
2016-05-08T00:15:34.175Z,1008.58
2016-05-08T00:15:44.159Z,1008.61
2016-05-08T00:15:54.175Z,1008.59
2016-05-08T00:16:04.159Z,1008.63
2016-05-08T00:16:14.159Z,1008.61
2016-05-08T00:16:24.144Z,1008.61
2016-05-08T00:16:34.131Z,1008.64
2016-05-08T00:16:44.131Z,1008.63
2016-05-08T00:16:54.131Z,1008.63
2016-05-08T00:17:04.131Z,1008.6
2016-05-08T00:17:14.115Z,1008.6
2016-05-08T00:17:24.131Z,1008.62
2016-05-08T00:17:34.118Z,1008.65
2016-05-08T00:17:44.118Z,1008.66
2016-05-08T00:17:54.118Z,1008.6
2016-05-08T00:18:04.103Z,1008.59
2016-05-08T00:18:13.946Z,1008.6
2016-05-08T00:18:24.071Z,1008.57
2016-05-08T00:18:34.089Z,1008.6
2016-05-08T00:18:44.073Z,1008.56
2016-05-08T00:18:54.089Z,1008.66
2016-05-08T00:19:04.073Z,1008.68
2016-05-08T00:19:13.777Z,1008.66
2016-05-08T00:19:24.058Z,1008.65
2016-05-08T00:19:34.061Z,1008.67
2016-05-08T00:19:43.905Z,1008.64
2016-05-08T00:19:54.045Z,1008.66
2016-05-08T00:20:04.045Z,1008.63
2016-05-08T00:20:14.045Z,1008.66
2016-05-08T00:20:24.061Z,1008.59
2016-05-08T00:20:34.047Z,1008.67
2016-05-08T00:20:44.110Z,1008.66
2016-05-08T00:20:54.032Z,1008.67
2016-05-08T00:21:04.016Z,1008.63
2016-05-08T00:21:14.016Z,1008.6
2016-05-08T00:21:23.719Z,1008.65
2016-05-08T00:21:34.019Z,1008.65
2016-05-08T00:21:44.003Z,1008.69
2016-05-08T00:21:54.019Z,1008.63
2016-05-08T00:22:04.003Z,1008.63
2016-05-08T00:22:13.988Z,1008.67
2016-05-08T00:22:23.831Z,1008.66
2016-05-08T00:22:33.976Z,1008.66
2016-05-08T00:22:43.835Z,1008.66
2016-05-08T00:22:53.992Z,1008.64
2016-05-08T00:23:03.992Z,1008.64
2016-05-08T00:23:13.992Z,1008.69
2016-05-08T00:23:23.976Z,1008.64
2016-05-08T00:23:33.994Z,1008.66
2016-05-08T00:23:43.947Z,1008.62
2016-05-08T00:23:53.947Z,1008.64
2016-05-08T00:24:04.609Z,1008.64
2016-05-08T00:24:13.938Z,1008.66
2016-05-08T00:24:23.938Z,1008.63
2016-05-08T00:24:33.925Z,1008.64
2016-05-08T00:24:43.941Z,1008.62
2016-05-08T00:24:53.910Z,1008.64
2016-05-08T00:25:03.925Z,1008.63
2016-05-08T00:25:13.769Z,1008.65
2016-05-08T00:25:23.910Z,1008.6
2016-05-08T00:25:33.740Z,1008.65
2016-05-08T00:25:43.740Z,1008.62
2016-05-08T00:25:53.881Z,1008.61
2016-05-08T00:26:03.927Z,1008.63
2016-05-08T00:26:13.912Z,1008.62
2016-05-08T00:26:23.881Z,1008.64
2016-05-08T00:26:33.727Z,1008.64
2016-05-08T00:26:43.712Z,1008.63
2016-05-08T00:26:53.868Z,1008.61
2016-05-08T00:27:03.712Z,1008.6
2016-05-08T00:27:14.337Z,1008.6
2016-05-08T00:27:24.087Z,1008.63
2016-05-08T00:27:33.870Z,1008.62
2016-05-08T00:27:43.854Z,1008.57
2016-05-08T00:27:53.839Z,1008.62
2016-05-08T00:28:03.839Z,1008.63
2016-05-08T00:28:13.839Z,1008.6
2016-05-08T00:28:23.823Z,1008.61
2016-05-08T00:28:33.827Z,1008.64
2016-05-08T00:28:43.827Z,1008.64
2016-05-08T00:28:53.827Z,1008.61
2016-05-08T00:29:03.671Z,1008.62
2016-05-08T00:29:13.640Z,1008.67
2016-05-08T00:29:23.796Z,1008.63
2016-05-08T00:29:33.798Z,1008.65
2016-05-08T00:29:43.798Z,1008.63
2016-05-08T00:29:53.813Z,1008.65
2016-05-08T00:30:03.782Z,1008.65
2016-05-08T00:30:13.782Z,1008.63
2016-05-08T00:30:23.767Z,1008.6
2016-05-08T00:30:33.754Z,1008.61
2016-05-08T00:30:43.770Z,1008.6
2016-05-08T00:30:53.754Z,1008.63
2016-05-08T00:31:03.754Z,1008.61
2016-05-08T00:31:13.754Z,1008.62
2016-05-08T00:31:23.754Z,1008.6
2016-05-08T00:31:33.757Z,1008.6
2016-05-08T00:31:43.741Z,1008.61
2016-05-08T00:31:53.741Z,1008.6
2016-05-08T00:32:03.726Z,1008.62
2016-05-08T00:32:13.585Z,1008.63
2016-05-08T00:32:23.429Z,1008.65
2016-05-08T00:32:33.712Z,1008.63
2016-05-08T00:32:43.571Z,1008.61
2016-05-08T00:32:53.712Z,1008.65
2016-05-08T00:33:03.712Z,1008.65
2016-05-08T00:33:13.712Z,1008.62
2016-05-08T00:33:23.696Z,1008.64
2016-05-08T00:33:33.527Z,1008.58
2016-05-08T00:33:43.542Z,1008.59
2016-05-08T00:33:53.542Z,1008.61
2016-05-08T00:34:03.698Z,1008.62
2016-05-08T00:34:13.683Z,1008.61
2016-05-08T00:34:23.683Z,1008.62
2016-05-08T00:34:33.670Z,1008.63
2016-05-08T00:34:43.670Z,1008.58
2016-05-08T00:34:53.342Z,1008.62
2016-05-08T00:35:03.655Z,1008.58
2016-05-08T00:35:13.639Z,1008.59
2016-05-08T00:35:23.655Z,1008.58
2016-05-08T00:35:33.658Z,1008.62
2016-05-08T00:35:43.642Z,1008.62
2016-05-08T00:35:53.486Z,1008.57
2016-05-08T00:36:03.642Z,1008.57
2016-05-08T00:36:13.626Z,1008.57
2016-05-08T00:36:23.454Z,1008.59
2016-05-08T00:36:33.598Z,1008.58
2016-05-08T00:36:43.614Z,1008.57
2016-05-08T00:36:53.614Z,1008.58
2016-05-08T00:37:03.598Z,1008.56
2016-05-08T00:37:13.598Z,1008.62
2016-05-08T00:37:23.442Z,1008.57
2016-05-08T00:37:33.585Z,1008.62
2016-05-08T00:37:43.601Z,1008.6
2016-05-08T00:37:53.570Z,1008.56
2016-05-08T00:38:03.570Z,1008.59
2016-05-08T00:38:13.554Z,1008.56
2016-05-08T00:38:23.414Z,1008.57
2016-05-08T00:38:33.572Z,1008.55
2016-05-08T00:38:43.556Z,1008.56
2016-05-08T00:38:53.556Z,1008.57
2016-05-08T00:39:03.556Z,1008.58
2016-05-08T00:39:13.541Z,1008.56
2016-05-08T00:39:23.541Z,1008.57
2016-05-08T00:39:33.544Z,1008.53
2016-05-08T00:39:43.528Z,1008.56
2016-05-08T00:39:53.512Z,1008.59
2016-05-08T00:40:03.528Z,1008.57
2016-05-08T00:40:13.528Z,1008.58
2016-05-08T00:40:23.512Z,1008.61
2016-05-08T00:40:33.358Z,1008.61
2016-05-08T00:40:43.499Z,1008.6
2016-05-08T00:40:53.499Z,1008.56
2016-05-08T00:41:03.483Z,1008.57
2016-05-08T00:41:13.483Z,1008.6
2016-05-08T00:41:23.483Z,1008.58
2016-05-08T00:41:33.486Z,1008.57
2016-05-08T00:41:43.470Z,1008.56
2016-05-08T00:41:53.455Z,1008.59
2016-05-08T00:42:03.314Z,1008.54
2016-05-08T00:42:13.939Z,1008.55
2016-05-08T00:42:23.564Z,1008.56
2016-05-08T00:42:33.317Z,1008.53
2016-05-08T00:42:43.145Z,1008.5
2016-05-08T00:42:53.489Z,1008.52
2016-05-08T00:43:03.286Z,1008.52
2016-05-08T00:43:13.270Z,1008.53
2016-05-08T00:43:23.427Z,1008.52
2016-05-08T00:43:33.430Z,1008.51
2016-05-08T00:43:43.430Z,1008.56
2016-05-08T00:43:53.430Z,1008.56
2016-05-08T00:44:03.414Z,1008.53
2016-05-08T00:44:13.414Z,1008.57
2016-05-08T00:44:23.398Z,1008.55
2016-05-08T00:44:33.244Z,1008.57
2016-05-08T00:44:43.416Z,1008.57
2016-05-08T00:44:53.400Z,1008.56
2016-05-08T00:45:03.385Z,1008.56
2016-05-08T00:45:13.244Z,1008.57
2016-05-08T00:45:23.385Z,1008.54
2016-05-08T00:45:33.231Z,1008.57
2016-05-08T00:45:43.372Z,1008.55
2016-05-08T00:45:53.372Z,1008.54
2016-05-08T00:46:03.356Z,1008.55
2016-05-08T00:46:13.356Z,1008.55
2016-05-08T00:46:23.200Z,1008.54
2016-05-08T00:46:33.031Z,1008.55
2016-05-08T00:46:43.203Z,1008.59
2016-05-08T00:46:53.344Z,1008.52
2016-05-08T00:47:03.344Z,1008.55
2016-05-08T00:47:13.328Z,1008.53
2016-05-08T00:47:23.188Z,1008.59
2016-05-08T00:47:33.175Z,1008.54
2016-05-08T00:47:43.331Z,1008.54
2016-05-08T00:47:53.316Z,1008.57
2016-05-08T00:48:03.159Z,1008.57
2016-05-08T00:48:13.316Z,1008.56
2016-05-08T00:48:23.300Z,1008.54
2016-05-08T00:48:33.302Z,1008.57
2016-05-08T00:48:43.286Z,1008.57
2016-05-08T00:48:53.286Z,1008.56
2016-05-08T00:49:03.286Z,1008.54
2016-05-08T00:49:13.286Z,1008.55
2016-05-08T00:49:23.286Z,1008.54
2016-05-08T00:49:33.274Z,1008.55
2016-05-08T00:49:43.258Z,1008.58
2016-05-08T00:49:53.258Z,1008.55
2016-05-08T00:50:03.258Z,1008.58
2016-05-08T00:50:13.258Z,1008.57
2016-05-08T00:50:23.258Z,1008.56
2016-05-08T00:50:33.260Z,1008.56
2016-05-08T00:50:43.088Z,1008.55
2016-05-08T00:50:53.229Z,1008.56
2016-05-08T00:51:03.229Z,1008.54
2016-05-08T00:51:13.229Z,1008.55
2016-05-08T00:51:23.073Z,1008.53
2016-05-08T00:51:33.216Z,1008.55
2016-05-08T00:51:43.216Z,1008.5
2016-05-08T00:51:53.216Z,1008.51
2016-05-08T00:52:03.201Z,1008.56
2016-05-08T00:52:13.201Z,1008.56
2016-05-08T00:52:23.185Z,1008.52
2016-05-08T00:52:33.203Z,1008.54
2016-05-08T00:52:43.171Z,1008.54
2016-05-08T00:52:53.171Z,1008.52
2016-05-08T00:53:03.015Z,1008.54
2016-05-08T00:53:13.171Z,1008.54
2016-05-08T00:53:23.171Z,1008.53
2016-05-08T00:53:33.175Z,1008.54
2016-05-08T00:53:43.160Z,1008.57
2016-05-08T00:53:53.160Z,1008.56
2016-05-08T00:54:03.144Z,1008.58
2016-05-08T00:54:13.144Z,1008.57
2016-05-08T00:54:23.128Z,1008.58
2016-05-08T00:54:33.130Z,1008.6
2016-05-08T00:54:43.130Z,1008.57
2016-05-08T00:54:53.130Z,1008.58
2016-05-08T00:55:03.130Z,1008.57
2016-05-08T00:55:12.959Z,1008.58
2016-05-08T00:55:22.959Z,1008.57
2016-05-08T00:55:32.962Z,1008.59
2016-05-08T00:55:43.102Z,1008.58
2016-05-08T00:55:52.946Z,1008.57
2016-05-08T00:56:03.102Z,1008.57
2016-05-08T00:56:13.087Z,1008.6
2016-05-08T00:56:23.087Z,1008.58
2016-05-08T00:56:32.932Z,1008.57
2016-05-08T00:56:43.073Z,1008.57
2016-05-08T00:56:53.073Z,1008.57
2016-05-08T00:57:03.073Z,1008.55
2016-05-08T00:57:13.073Z,1008.56
2016-05-08T00:57:23.214Z,1008.55
2016-05-08T00:57:33.060Z,1008.54
2016-05-08T00:57:43.060Z,1008.59
2016-05-08T00:57:53.185Z,1008.56
2016-05-08T00:58:03.842Z,1008.6
2016-05-08T00:58:12.888Z,1008.57
2016-05-08T00:58:23.029Z,1008.57
2016-05-08T00:58:33.047Z,1008.62
2016-05-08T00:58:43.031Z,1008.59
2016-05-08T00:58:53.031Z,1008.57
2016-05-08T00:59:03.015Z,1008.57
2016-05-08T00:59:13.000Z,1008.56
2016-05-08T00:59:22.703Z,1008.57
2016-05-08T00:59:32.844Z,1008.6
2016-05-08T00:59:43.004Z,1008.61
2016-05-08T00:59:52.988Z,1008.61
2016-05-08T01:00:03.004Z,1008.59
2016-05-08T01:00:12.988Z,1008.56
2016-05-08T01:00:22.988Z,1008.55
2016-05-08T01:00:32.973Z,1008.53
2016-05-08T01:00:42.960Z,1008.52
2016-05-08T01:00:52.960Z,1008.57
2016-05-08T01:01:02.960Z,1008.54
2016-05-08T01:01:12.960Z,1008.6
2016-05-08T01:01:22.960Z,1008.55
2016-05-08T01:01:32.960Z,1008.58
2016-05-08T01:01:42.946Z,1008.56
2016-05-08T01:01:52.946Z,1008.58
2016-05-08T01:02:02.931Z,1008.58
2016-05-08T01:02:12.931Z,1008.56
2016-05-08T01:02:22.946Z,1008.59
2016-05-08T01:02:32.915Z,1008.61
2016-05-08T01:02:42.917Z,1008.56
2016-05-08T01:02:52.917Z,1008.57
2016-05-08T01:03:02.761Z,1008.56
2016-05-08T01:03:12.917Z,1008.53
2016-05-08T01:03:22.886Z,1008.57
2016-05-08T01:03:32.886Z,1008.53
2016-05-08T01:03:42.890Z,1008.56
2016-05-08T01:03:52.890Z,1008.6
2016-05-08T01:04:02.890Z,1008.57
2016-05-08T01:04:12.890Z,1008.55
2016-05-08T01:04:22.734Z,1008.58
2016-05-08T01:04:32.718Z,1008.56
2016-05-08T01:04:42.876Z,1008.55
2016-05-08T01:04:52.704Z,1008.53
2016-05-08T01:05:02.861Z,1008.55
2016-05-08T01:05:12.845Z,1008.5
2016-05-08T01:05:22.845Z,1008.54
2016-05-08T01:05:32.845Z,1008.53
2016-05-08T01:05:42.848Z,1008.59
2016-05-08T01:05:52.676Z,1008.56
2016-05-08T01:06:02.832Z,1008.53
2016-05-08T01:06:12.817Z,1008.54
2016-05-08T01:06:22.817Z,1008.53
2016-05-08T01:06:32.817Z,1008.56
2016-05-08T01:06:42.804Z,1008.6
2016-05-08T01:06:52.820Z,1008.55
2016-05-08T01:07:02.804Z,1008.59
2016-05-08T01:07:12.788Z,1008.55
2016-05-08T01:07:22.648Z,1008.57
2016-05-08T01:07:32.632Z,1008.57
2016-05-08T01:07:42.806Z,1008.58
2016-05-08T01:07:52.790Z,1008.58
2016-05-08T01:08:02.775Z,1008.55
2016-05-08T01:08:12.775Z,1008.6
2016-05-08T01:08:22.775Z,1008.59
2016-05-08T01:08:32.759Z,1008.55
2016-05-08T01:08:42.761Z,1008.58
2016-05-08T01:08:52.746Z,1008.59
2016-05-08T01:09:02.449Z,1008.59
2016-05-08T01:09:12.605Z,1008.58
2016-05-08T01:09:22.589Z,1008.6
2016-05-08T01:09:32.730Z,1008.59
2016-05-08T01:09:42.733Z,1008.61
2016-05-08T01:09:52.717Z,1008.57
2016-05-08T01:10:02.717Z,1008.59
2016-05-08T01:10:12.702Z,1008.58
2016-05-08T01:10:22.702Z,1008.56
2016-05-08T01:10:32.702Z,1008.61
2016-05-08T01:10:42.720Z,1008.6
2016-05-08T01:10:52.689Z,1008.55
2016-05-08T01:11:02.689Z,1008.59
2016-05-08T01:11:12.548Z,1008.6
2016-05-08T01:11:22.689Z,1008.6
2016-05-08T01:11:32.673Z,1008.57
2016-05-08T01:11:42.676Z,1008.58
2016-05-08T01:11:52.676Z,1008.58
2016-05-08T01:12:02.661Z,1008.6
2016-05-08T01:12:12.536Z,1008.63
2016-05-08T01:12:22.911Z,1008.64
2016-05-08T01:12:33.270Z,1008.62
2016-05-08T01:12:42.648Z,1008.6
2016-05-08T01:12:53.039Z,1008.62
2016-05-08T01:13:02.648Z,1008.61
2016-05-08T01:13:12.633Z,1008.62
2016-05-08T01:13:22.633Z,1008.63
2016-05-08T01:13:32.633Z,1008.64
2016-05-08T01:13:42.635Z,1008.62
2016-05-08T01:13:52.619Z,1008.62
2016-05-08T01:14:02.619Z,1008.63
2016-05-08T01:14:12.603Z,1008.65
2016-05-08T01:14:22.463Z,1008.7
2016-05-08T01:14:32.447Z,1008.64
2016-05-08T01:14:42.450Z,1008.62
2016-05-08T01:14:52.434Z,1008.64
2016-05-08T01:15:02.591Z,1008.64
2016-05-08T01:15:12.575Z,1008.64
2016-05-08T01:15:22.591Z,1008.66
2016-05-08T01:15:32.434Z,1008.63
2016-05-08T01:15:42.578Z,1008.65
2016-05-08T01:15:52.437Z,1008.64
2016-05-08T01:16:02.562Z,1008.67
2016-05-08T01:16:12.562Z,1008.65
2016-05-08T01:16:22.250Z,1008.67
2016-05-08T01:16:32.547Z,1008.63
2016-05-08T01:16:42.550Z,1008.66
2016-05-08T01:16:52.550Z,1008.63
2016-05-08T01:17:02.534Z,1008.64
2016-05-08T01:17:12.378Z,1008.63
2016-05-08T01:17:22.550Z,1008.65
2016-05-08T01:17:32.550Z,1008.61
2016-05-08T01:17:42.521Z,1008.62
2016-05-08T01:17:52.521Z,1008.6
2016-05-08T01:18:02.521Z,1008.65
2016-05-08T01:18:12.505Z,1008.62
2016-05-08T01:18:22.489Z,1008.64
2016-05-08T01:18:32.489Z,1008.59
2016-05-08T01:18:42.336Z,1008.65
2016-05-08T01:18:52.492Z,1008.66
2016-05-08T01:19:02.477Z,1008.66
2016-05-08T01:19:12.477Z,1008.65
2016-05-08T01:19:22.477Z,1008.66
2016-05-08T01:19:32.477Z,1008.66
2016-05-08T01:19:42.479Z,1008.65
2016-05-08T01:19:52.463Z,1008.66
2016-05-08T01:20:02.463Z,1008.69
2016-05-08T01:20:12.447Z,1008.69
2016-05-08T01:20:22.447Z,1008.69
2016-05-08T01:20:32.447Z,1008.68
2016-05-08T01:20:42.435Z,1008.68
2016-05-08T01:20:52.450Z,1008.71
2016-05-08T01:21:02.279Z,1008.67
2016-05-08T01:21:12.435Z,1008.71
2016-05-08T01:21:22.419Z,1008.69
2016-05-08T01:21:32.404Z,1008.7
2016-05-08T01:21:42.422Z,1008.7
2016-05-08T01:21:52.407Z,1008.67
2016-05-08T01:22:02.266Z,1008.67
2016-05-08T01:22:12.407Z,1008.7
2016-05-08T01:22:22.407Z,1008.65
2016-05-08T01:22:32.391Z,1008.67
2016-05-08T01:22:42.378Z,1008.68
2016-05-08T01:22:52.394Z,1008.66
2016-05-08T01:23:02.378Z,1008.7
2016-05-08T01:23:12.363Z,1008.64
2016-05-08T01:23:22.378Z,1008.64
2016-05-08T01:23:32.363Z,1008.65
2016-05-08T01:23:42.365Z,1008.64
2016-05-08T01:23:52.365Z,1008.7
2016-05-08T01:24:02.193Z,1008.66
2016-05-08T01:24:12.349Z,1008.69
2016-05-08T01:24:22.333Z,1008.67
2016-05-08T01:24:32.349Z,1008.66
2016-05-08T01:24:42.336Z,1008.67
2016-05-08T01:24:52.322Z,1008.67
2016-05-08T01:25:02.322Z,1008.66
2016-05-08T01:25:12.306Z,1008.63
2016-05-08T01:25:22.322Z,1008.64
2016-05-08T01:25:32.306Z,1008.64
2016-05-08T01:25:42.152Z,1008.63
2016-05-08T01:25:52.308Z,1008.7
2016-05-08T01:26:02.293Z,1008.69
2016-05-08T01:26:12.293Z,1008.67
2016-05-08T01:26:22.277Z,1008.63
2016-05-08T01:26:32.277Z,1008.68
2016-05-08T01:26:42.280Z,1008.68
2016-05-08T01:26:52.264Z,1008.66
2016-05-08T01:27:02.124Z,1008.7
2016-05-08T01:27:12.280Z,1008.65
2016-05-08T01:27:22.124Z,1008.65
2016-05-08T01:27:32.389Z,1008.67
2016-05-08T01:27:42.188Z,1008.7
2016-05-08T01:27:52.110Z,1008.68
2016-05-08T01:28:02.251Z,1008.71
2016-05-08T01:28:12.235Z,1008.67
2016-05-08T01:28:22.235Z,1008.68
2016-05-08T01:28:32.219Z,1008.67
2016-05-08T01:28:42.083Z,1008.67
2016-05-08T01:28:52.223Z,1008.68
2016-05-08T01:29:02.223Z,1008.7
2016-05-08T01:29:12.208Z,1008.69
2016-05-08T01:29:21.895Z,1008.69
2016-05-08T01:29:31.895Z,1008.7
2016-05-08T01:29:42.210Z,1008.66
2016-05-08T01:29:52.022Z,1008.7
2016-05-08T01:30:02.194Z,1008.67
2016-05-08T01:30:12.038Z,1008.69
2016-05-08T01:30:22.179Z,1008.7
2016-05-08T01:30:32.179Z,1008.7
2016-05-08T01:30:42.166Z,1008.67
2016-05-08T01:30:52.010Z,1008.65
2016-05-08T01:31:02.166Z,1008.68
2016-05-08T01:31:12.150Z,1008.69
2016-05-08T01:31:22.010Z,1008.67
2016-05-08T01:31:32.166Z,1008.67
2016-05-08T01:31:42.152Z,1008.71
2016-05-08T01:31:52.152Z,1008.68
2016-05-08T01:32:02.121Z,1008.69
2016-05-08T01:32:11.980Z,1008.67
2016-05-08T01:32:21.980Z,1008.68
2016-05-08T01:32:32.105Z,1008.7
2016-05-08T01:32:42.125Z,1008.69
2016-05-08T01:32:52.125Z,1008.67
2016-05-08T01:33:02.141Z,1008.68
2016-05-08T01:33:12.109Z,1008.72
2016-05-08T01:33:22.094Z,1008.72
2016-05-08T01:33:32.094Z,1008.73
2016-05-08T01:33:42.096Z,1008.71
2016-05-08T01:33:52.080Z,1008.71
2016-05-08T01:34:02.096Z,1008.71
2016-05-08T01:34:12.080Z,1008.72
2016-05-08T01:34:21.924Z,1008.77
2016-05-08T01:34:32.080Z,1008.71
2016-05-08T01:34:42.068Z,1008.7
2016-05-08T01:34:52.052Z,1008.7
2016-05-08T01:35:02.052Z,1008.67
2016-05-08T01:35:12.052Z,1008.68
2016-05-08T01:35:22.052Z,1008.7
2016-05-08T01:35:32.036Z,1008.7
2016-05-08T01:35:42.038Z,1008.68
2016-05-08T01:35:52.023Z,1008.72
2016-05-08T01:36:01.866Z,1008.7
2016-05-08T01:36:12.023Z,1008.71
2016-05-08T01:36:22.023Z,1008.74
2016-05-08T01:36:32.023Z,1008.74
2016-05-08T01:36:42.026Z,1008.73
2016-05-08T01:36:51.854Z,1008.71
2016-05-08T01:37:01.994Z,1008.74
2016-05-08T01:37:12.010Z,1008.7
2016-05-08T01:37:21.994Z,1008.71
2016-05-08T01:37:31.994Z,1008.71
2016-05-08T01:37:41.840Z,1008.68
2016-05-08T01:37:51.825Z,1008.72
2016-05-08T01:38:01.981Z,1008.73
2016-05-08T01:38:11.965Z,1008.71
2016-05-08T01:38:21.965Z,1008.72
2016-05-08T01:38:31.965Z,1008.74
2016-05-08T01:38:41.954Z,1008.73
2016-05-08T01:38:51.797Z,1008.75
2016-05-08T01:39:01.954Z,1008.74
2016-05-08T01:39:11.938Z,1008.76
2016-05-08T01:39:21.938Z,1008.74
2016-05-08T01:39:31.938Z,1008.77
2016-05-08T01:39:41.924Z,1008.75
2016-05-08T01:39:51.784Z,1008.73
2016-05-08T01:40:01.924Z,1008.76
2016-05-08T01:40:11.768Z,1008.72
2016-05-08T01:40:21.752Z,1008.74
2016-05-08T01:40:31.909Z,1008.74
2016-05-08T01:40:41.755Z,1008.73
2016-05-08T01:40:51.896Z,1008.74
2016-05-08T01:41:01.896Z,1008.78
2016-05-08T01:41:11.896Z,1008.78
2016-05-08T01:41:21.740Z,1008.74
2016-05-08T01:41:31.880Z,1008.74
2016-05-08T01:41:41.882Z,1008.76
2016-05-08T01:41:51.867Z,1008.76
2016-05-08T01:42:01.867Z,1008.76
2016-05-08T01:42:11.695Z,1008.75
2016-05-08T01:42:21.726Z,1008.74
2016-05-08T01:42:32.351Z,1008.76
2016-05-08T01:42:42.042Z,1008.7
2016-05-08T01:42:52.120Z,1008.75
2016-05-08T01:43:01.745Z,1008.77
2016-05-08T01:43:11.839Z,1008.81
2016-05-08T01:43:21.682Z,1008.78
2016-05-08T01:43:31.823Z,1008.76
2016-05-08T01:43:41.826Z,1008.74
2016-05-08T01:43:51.654Z,1008.73
2016-05-08T01:44:01.810Z,1008.74
2016-05-08T01:44:11.810Z,1008.76
2016-05-08T01:44:21.654Z,1008.77
2016-05-08T01:44:31.810Z,1008.71
2016-05-08T01:44:41.798Z,1008.77
2016-05-08T01:44:51.641Z,1008.78
2016-05-08T01:45:01.798Z,1008.75
2016-05-08T01:45:11.641Z,1008.76
2016-05-08T01:45:21.626Z,1008.73
2016-05-08T01:45:31.782Z,1008.74
2016-05-08T01:45:41.768Z,1008.78
2016-05-08T01:45:51.768Z,1008.8
2016-05-08T01:46:01.612Z,1008.77
2016-05-08T01:46:11.612Z,1008.75
2016-05-08T01:46:21.597Z,1008.76
2016-05-08T01:46:31.753Z,1008.78
2016-05-08T01:46:41.740Z,1008.79
2016-05-08T01:46:51.584Z,1008.76
2016-05-08T01:47:01.725Z,1008.76
2016-05-08T01:47:11.725Z,1008.78
2016-05-08T01:47:21.725Z,1008.78
2016-05-08T01:47:31.725Z,1008.79
2016-05-08T01:47:41.712Z,1008.79
2016-05-08T01:47:51.571Z,1008.81
2016-05-08T01:48:01.696Z,1008.79
2016-05-08T01:48:11.712Z,1008.74
2016-05-08T01:48:21.540Z,1008.73
2016-05-08T01:48:31.524Z,1008.77
2016-05-08T01:48:41.698Z,1008.73
2016-05-08T01:48:51.683Z,1008.74
2016-05-08T01:49:01.683Z,1008.77
2016-05-08T01:49:11.698Z,1008.77
2016-05-08T01:49:21.511Z,1008.73
2016-05-08T01:49:31.370Z,1008.74
2016-05-08T01:49:41.670Z,1008.72
2016-05-08T01:49:51.654Z,1008.77
2016-05-08T01:50:01.498Z,1008.72
2016-05-08T01:50:11.654Z,1008.76
2016-05-08T01:50:21.639Z,1008.73
2016-05-08T01:50:31.639Z,1008.72
2016-05-08T01:50:41.642Z,1008.7
2016-05-08T01:50:51.626Z,1008.75
2016-05-08T01:51:01.626Z,1008.74
2016-05-08T01:51:11.626Z,1008.67
2016-05-08T01:51:21.454Z,1008.74
2016-05-08T01:51:31.611Z,1008.77
2016-05-08T01:51:41.613Z,1008.7
2016-05-08T01:51:51.597Z,1008.74
2016-05-08T01:52:01.597Z,1008.69
2016-05-08T01:52:11.441Z,1008.72
2016-05-08T01:52:21.597Z,1008.67
2016-05-08T01:52:31.597Z,1008.7
2016-05-08T01:52:41.600Z,1008.74
2016-05-08T01:52:51.584Z,1008.73
2016-05-08T01:53:01.600Z,1008.7
2016-05-08T01:53:11.584Z,1008.73
2016-05-08T01:53:21.412Z,1008.76
2016-05-08T01:53:31.397Z,1008.76
2016-05-08T01:53:41.556Z,1008.77
2016-05-08T01:53:51.384Z,1008.8
2016-05-08T01:54:01.556Z,1008.72
2016-05-08T01:54:11.556Z,1008.76
2016-05-08T01:54:21.540Z,1008.68
2016-05-08T01:54:31.556Z,1008.74
2016-05-08T01:54:41.528Z,1008.7
2016-05-08T01:54:51.528Z,1008.77
2016-05-08T01:55:01.512Z,1008.74
2016-05-08T01:55:11.512Z,1008.74
2016-05-08T01:55:21.512Z,1008.75
2016-05-08T01:55:31.512Z,1008.77
2016-05-08T01:55:41.499Z,1008.77
2016-05-08T01:55:51.514Z,1008.75
2016-05-08T01:56:01.514Z,1008.77
2016-05-08T01:56:11.483Z,1008.76
2016-05-08T01:56:21.327Z,1008.73
2016-05-08T01:56:31.483Z,1008.76
2016-05-08T01:56:41.470Z,1008.79
2016-05-08T01:56:51.470Z,1008.76
2016-05-08T01:57:01.455Z,1008.77
2016-05-08T01:57:11.455Z,1008.77
2016-05-08T01:57:21.455Z,1008.76
2016-05-08T01:57:31.470Z,1008.75
2016-05-08T01:57:41.457Z,1008.78
2016-05-08T01:57:51.379Z,1008.73
2016-05-08T01:58:01.504Z,1008.77
2016-05-08T01:58:11.425Z,1008.73
2016-05-08T01:58:21.269Z,1008.78
2016-05-08T01:58:31.269Z,1008.76
2016-05-08T01:58:41.428Z,1008.74
2016-05-08T01:58:51.413Z,1008.75
2016-05-08T01:59:01.428Z,1008.78
2016-05-08T01:59:11.397Z,1008.76
2016-05-08T01:59:21.397Z,1008.75
2016-05-08T01:59:31.382Z,1008.75
2016-05-08T01:59:41.385Z,1008.75
2016-05-08T01:59:51.385Z,1008.77
2016-05-08T02:00:01.400Z,1008.75
2016-05-08T02:00:11.385Z,1008.73
2016-05-08T02:00:21.385Z,1008.76
2016-05-08T02:00:31.369Z,1008.73
2016-05-08T02:00:41.356Z,1008.78
2016-05-08T02:00:51.356Z,1008.73
2016-05-08T02:01:01.341Z,1008.73
2016-05-08T02:01:11.341Z,1008.75
2016-05-08T02:01:21.341Z,1008.74